Time;durP1;ratioP1;P1;durP2;ratioP2;P2;SDS_P1;SDS_P2;PMS_P1;PMS_P2;Temp;Humidity;BMP_temperature;BMP_pressure;BME280_temperature;BME280_humidity;BME280_pressure;Samples;Min_cycle;Max_cycle;Signal;HPM_P1;HPM_P2
2021/12/30 00:00:33;;;;;;;;;;;5.20;99.90;;;;;;5030271;28;19993;-83
2021/12/30 00:03:02;;;;;;;;;;;5.20;99.90;;;;;;5027565;28;19926;-82
2021/12/30 00:05:28;;;;;;;;;;;5.20;99.90;;;;;;5026292;28;19926;-79
2021/12/30 00:07:55;;;;;;;;;;;5.20;99.90;;;;;;5027328;28;19925;-81
2021/12/30 00:10:21;;;;;;;;;;;5.20;99.90;;;;;;5028517;28;19925;-81
2021/12/30 00:12:50;;;;;;;;;;;5.10;99.90;;;;;;5028423;28;20443;-81
2021/12/30 00:15:17;;;;;;;;;;;5.10;99.90;;;;;;5028940;28;20285;-82
2021/12/30 00:17:43;;;;;;;;;;;5.20;99.90;;;;;;5028614;28;19929;-81
2021/12/30 00:20:12;;;;;;;;;;;5.10;99.90;;;;;;5028739;28;19926;-82
2021/12/30 00:22:40;;;;;;;;;;;5.10;99.90;;;;;;5028721;28;19925;-81
2021/12/30 00:25:07;;;;;;;;;;;5.10;99.90;;;;;;5035449;28;19944;-81
2021/12/30 00:27:34;;;;;;;;;;;5.10;99.90;;;;;;5038183;28;19925;-82
2021/12/30 00:30:01;;;;;;;;;;;5.10;99.90;;;;;;5031063;28;19926;-82
2021/12/30 00:32:27;;;;;;;;;;;5.10;99.90;;;;;;5029372;28;19933;-82
2021/12/30 00:34:53;;;;;;;;;;;5.10;99.90;;;;;;5028772;28;19929;-82
2021/12/30 00:37:21;;;;;;;;;;;5.10;99.90;;;;;;5027794;28;19926;-82
2021/12/30 00:39:48;;;;;;;;;;;5.20;99.90;;;;;;5028664;28;19925;-82
2021/12/30 00:42:14;;;;;;;;;;;5.20;99.90;;;;;;5028472;28;19932;-82
2021/12/30 00:44:41;;;;;;;;;;;5.20;99.90;;;;;;5033863;28;19925;-80
2021/12/30 00:47:10;;;;;;;;;;;5.20;99.90;;;;;;5034350;28;19925;-80
2021/12/30 00:49:47;;;;;;;;;;;5.20;99.90;;;;;;5033214;28;19931;-81
2021/12/30 00:52:14;;;;;;;;;;;5.20;99.90;;;;;;5034945;28;19931;-80
2021/12/30 00:54:42;;;;;;;;;;;5.20;99.90;;;;;;5035859;28;19925;-81
2021/12/30 00:57:08;;;;;;;;;;;5.20;99.90;;;;;;5036542;28;19925;-80
2021/12/30 00:59:35;;;;;;;;;;;5.20;99.90;;;;;;5036355;28;19926;-80
2021/12/30 01:02:01;;;;;;;;;;;5.20;99.90;;;;;;5036007;28;19937;-80
2021/12/30 01:04:28;;;;;;;;;;;5.30;99.90;;;;;;5036881;28;19948;-80
2021/12/30 01:06:54;;;;;;;;;;;5.30;99.90;;;;;;5036098;28;19926;-79
2021/12/30 01:09:21;;;;;;;;;;;5.30;99.90;;;;;;5036620;28;19949;-80
2021/12/30 01:11:49;;;;;;;;;;;5.30;99.90;;;;;;5037128;28;19926;-79
2021/12/30 01:14:21;;;;;;;;;;;5.30;99.90;;;;;;5037706;28;19913;-80
2021/12/30 01:16:52;;;;;;;;;;;5.30;99.90;;;;;;5036863;28;19931;-81
2021/12/30 01:19:42;;;;;;;;;;;5.40;99.90;;;;;;5036359;28;19967;-80
2021/12/30 01:22:09;;;;;;;;;;;5.40;99.90;;;;;;5037101;28;19976;-81
2021/12/30 01:24:36;;;;;;;;;;;5.40;99.90;;;;;;5036631;28;19933;-79
2021/12/30 01:27:04;;;;;;;;;;;5.40;99.90;;;;;;5037044;28;19957;-79
2021/12/30 01:29:31;;;;;;;;;;;5.50;99.90;;;;;;5037487;28;19996;-79
2021/12/30 01:31:57;;;;;;;;;;;5.50;99.90;;;;;;5037440;28;19926;-79
2021/12/30 01:34:26;;;;;;;;;;;5.40;99.90;;;;;;5036842;28;19957;-79
2021/12/30 01:36:53;;;;;;;;;;;5.50;99.90;;;;;;5036558;28;19936;-79
2021/12/30 01:39:21;;;;;;;;;;;5.40;99.90;;;;;;5036855;28;19930;-79
2021/12/30 01:41:48;;;;;;;;;;;5.40;99.90;;;;;;5036391;28;19925;-82
2021/12/30 01:44:16;;;;;;;;;;;5.40;99.90;;;;;;5028182;28;19925;-82
2021/12/30 01:46:44;;;;;;;;;;;5.40;99.90;;;;;;5028503;28;20025;-82
2021/12/30 01:49:11;;;;;;;;;;;5.40;99.90;;;;;;5027199;28;19933;-81
2021/12/30 01:51:38;;;;;;;;;;;5.40;99.90;;;;;;5026903;28;19965;-82
2021/12/30 01:54:05;;;;;;;;;;;5.40;99.90;;;;;;5026769;28;20245;-81
2021/12/30 01:56:32;;;;;;;;;;;5.40;99.90;;;;;;5026545;28;19991;-82
2021/12/30 01:58:59;;;;;;;;;;;5.40;99.90;;;;;;5026058;28;19949;-81
2021/12/30 02:01:27;;;;;;;;;;;5.40;99.90;;;;;;5026313;28;19925;-80
2021/12/30 02:03:53;;;;;;;;;;;5.40;99.90;;;;;;5023626;28;19937;-82
2021/12/30 02:06:20;;;;;;;;;;;5.40;99.90;;;;;;5023565;28;19955;-81
2021/12/30 02:08:46;;;;;;;;;;;5.40;99.90;;;;;;5025566;28;19925;-82
2021/12/30 02:11:13;;;;;;;;;;;5.40;99.90;;;;;;5025530;28;19934;-82
2021/12/30 02:13:39;;;;;;;;;;;5.40;99.90;;;;;;5026013;28;19965;-81
2021/12/30 02:16:06;;;;;;;;;;;5.30;99.90;;;;;;5026921;28;19929;-82
2021/12/30 02:18:34;;;;;;;;;;;5.40;99.90;;;;;;5026919;28;19932;-81
2021/12/30 02:21:02;;;;;;;;;;;5.40;99.90;;;;;;5026436;28;19925;-82
2021/12/30 02:23:29;;;;;;;;;;;5.50;99.90;;;;;;5026211;28;20392;-82
2021/12/30 02:26:00;;;;;;;;;;;5.50;99.90;;;;;;5025892;28;19932;-82
2021/12/30 02:28:27;;;;;;;;;;;5.50;99.90;;;;;;5025627;28;19933;-82
2021/12/30 02:30:55;;;;;;;;;;;5.50;99.90;;;;;;5025848;28;19930;-82
2021/12/30 02:33:22;;;;;;;;;;;5.50;99.90;;;;;;5025888;28;19936;-82
2021/12/30 02:35:49;;;;;;;;;;;5.50;99.90;;;;;;5029731;28;19925;-81
2021/12/30 02:38:17;;;;;;;;;;;5.60;99.90;;;;;;5030448;28;19926;-81
2021/12/30 02:40:46;;;;;;;;;;;5.60;99.90;;;;;;5030958;28;19936;-81
2021/12/30 02:43:14;;;;;;;;;;;5.60;99.90;;;;;;5031191;28;19925;-81
2021/12/30 02:45:40;;;;;;;;;;;5.60;99.90;;;;;;5033406;28;19914;-80
2021/12/30 02:48:11;;;;;;;;;;;5.50;99.90;;;;;;5031309;28;19952;-80
2021/12/30 02:50:38;;;;;;;;;;;5.60;99.90;;;;;;5025241;28;19925;-78
2021/12/30 02:53:04;;;;;;;;;;;5.60;99.90;;;;;;5024245;28;19925;-79
2021/12/30 02:55:32;;;;;;;;;;;5.60;99.90;;;;;;5023228;28;19957;-79
2021/12/30 02:57:58;;;;;;;;;;;5.60;99.90;;;;;;5023935;28;19926;-80
2021/12/30 03:00:25;;;;;;;;;;;5.60;99.90;;;;;;5025532;28;19925;-81
2021/12/30 03:02:51;;;;;;;;;;;5.60;99.90;;;;;;5025511;28;20362;-81
2021/12/30 03:15:00;;;;;;;;;;;;;;;;;;;;;
2021/12/30 03:17:42;;;;;;;;;;;5.40;99.90;;;;;;4933780;28;19989;-84
2021/12/30 03:20:21;;;;;;;;;;;5.80;99.90;;;;;;4994061;28;19926;-85
2021/12/30 03:22:53;;;;;;;;;;;5.80;99.90;;;;;;4983385;28;19989;-84
2021/12/30 03:25:22;;;;;;;;;;;6.70;99.90;;;;;;5008482;28;19980;-84
2021/12/30 03:27:54;;;;;;;;;;;5.80;99.90;;;;;;5017241;28;19981;-84
2021/12/30 03:30:59;;;;;;;;;;;6.00;99.90;;;;;;5002276;28;19989;-84
2021/12/30 03:36:31;;;;;;;;;;;6.30;99.90;;;;;;4964717;28;19930;-82
2021/12/30 03:41:56;;;;;;;;;;;6.00;99.90;;;;;;4994032;28;19953;-83
2021/12/30 03:47:18;;;;;;;;;;;5.80;99.90;;;;;;4993707;28;19926;-82
2021/12/30 03:53:02;;;;;;;;;;;6.10;99.90;;;;;;4987624;28;19956;-83
2021/12/30 03:55:39;;;;;;;;;;;5.00;99.90;;;;;;5008701;28;19933;-82
2021/12/30 04:16:37;;;;;;;;;;;6.20;99.90;;;;;;5032875;23;20005;-85
2021/12/30 04:19:41;;;;;;;;;;;6.80;99.90;;;;;;5003019;28;19952;-83
2021/12/30 04:22:14;;;;;;;;;;;7.10;99.90;;;;;;5019864;28;19925;-85
2021/12/30 04:24:48;;;;;;;;;;;7.70;99.90;;;;;;5021757;28;19936;-84
2021/12/30 04:30:17;;;;;;;;;;;6.40;99.90;;;;;;5009207;23;19975;-82
2021/12/30 04:32:44;;;;;;;;;;;6.80;99.90;;;;;;5025970;28;19925;-81
2021/12/30 04:35:11;;;;;;;;;;;6.80;99.90;;;;;;5025847;28;19930;-80
2021/12/30 04:37:38;;;;;;;;;;;6.90;99.90;;;;;;5028235;28;19925;-82
2021/12/30 04:40:05;;;;;;;;;;;6.90;99.90;;;;;;5030052;28;20004;-82
2021/12/30 04:42:32;;;;;;;;;;;6.90;99.90;;;;;;5028329;28;19925;-81
2021/12/30 04:44:59;;;;;;;;;;;7.00;99.90;;;;;;5027916;28;19940;-81
2021/12/30 04:47:26;;;;;;;;;;;7.20;99.90;;;;;;5029151;28;20388;-82
2021/12/30 04:49:55;;;;;;;;;;;7.30;99.90;;;;;;5028857;28;20265;-82
2021/12/30 04:52:22;;;;;;;;;;;7.30;99.90;;;;;;5030858;28;19931;-82
2021/12/30 04:54:49;;;;;;;;;;;7.30;99.90;;;;;;5028685;28;19929;-82
2021/12/30 04:57:15;;;;;;;;;;;7.30;99.90;;;;;;5026579;28;19926;-82
2021/12/30 04:59:42;;;;;;;;;;;7.30;99.90;;;;;;5028861;28;19936;-81
2021/12/30 05:02:09;;;;;;;;;;;7.30;99.90;;;;;;5036995;28;19930;-82
2021/12/30 05:04:36;;;;;;;;;;;7.40;99.90;;;;;;5038945;28;19926;-80
2021/12/30 05:07:03;;;;;;;;;;;7.40;99.90;;;;;;5038717;28;19913;-81
2021/12/30 05:09:31;;;;;;;;;;;7.40;99.90;;;;;;5035106;28;19926;-82
2021/12/30 05:11:58;;;;;;;;;;;7.40;99.90;;;;;;5027957;28;19925;-82
2021/12/30 05:14:24;;;;;;;;;;;7.40;99.90;;;;;;5027270;28;19933;-81
2021/12/30 05:16:52;;;;;;;;;;;7.40;99.90;;;;;;5027094;28;20026;-81
2021/12/30 05:19:18;;;;;;;;;;;7.40;99.90;;;;;;5026196;28;20001;-82
2021/12/30 05:21:46;;;;;;;;;;;7.40;99.90;;;;;;5026349;28;19925;-81
2021/12/30 05:24:13;;;;;;;;;;;7.50;99.90;;;;;;5026217;28;19930;-81
2021/12/30 05:26:39;;;;;;;;;;;7.50;99.90;;;;;;5026757;28;19926;-82
2021/12/30 05:29:05;;;;;;;;;;;7.50;99.90;;;;;;5025674;28;19968;-81
2021/12/30 05:31:32;;;;;;;;;;;7.50;99.90;;;;;;5025182;28;19925;-81
2021/12/30 05:33:58;;;;;;;;;;;7.50;99.90;;;;;;5027214;28;19930;-81
2021/12/30 05:36:25;;;;;;;;;;;7.60;99.90;;;;;;5034294;28;19925;-80
2021/12/30 05:38:52;;;;;;;;;;;7.60;99.90;;;;;;5039755;28;19913;-79
2021/12/30 05:41:19;;;;;;;;;;;7.60;99.90;;;;;;5032084;28;19925;-82
2021/12/30 05:43:46;;;;;;;;;;;7.60;99.90;;;;;;5029100;28;19971;-81
2021/12/30 05:46:12;;;;;;;;;;;7.60;99.90;;;;;;5028639;28;19925;-81
2021/12/30 05:48:38;;;;;;;;;;;7.60;99.90;;;;;;5028126;28;19938;-81
2021/12/30 05:51:05;;;;;;;;;;;7.60;99.90;;;;;;5027935;28;19932;-81
2021/12/30 05:53:31;;;;;;;;;;;7.70;99.90;;;;;;5028021;28;19925;-82
2021/12/30 05:55:59;;;;;;;;;;;7.70;99.90;;;;;;5027821;28;19957;-81
2021/12/30 05:58:26;;;;;;;;;;;7.70;99.90;;;;;;5028078;28;19925;-81
2021/12/30 06:00:52;;;;;;;;;;;7.70;99.90;;;;;;5028348;28;19926;-81
2021/12/30 06:03:20;;;;;;;;;;;7.70;99.90;;;;;;5027265;28;19926;-81
2021/12/30 06:05:47;;;;;;;;;;;7.70;99.90;;;;;;5027458;28;19988;-81
2021/12/30 06:08:13;;;;;;;;;;;7.70;99.90;;;;;;5028204;28;19933;-81
2021/12/30 06:10:41;;;;;;;;;;;7.70;99.90;;;;;;5028202;28;19925;-81
2021/12/30 06:13:09;;;;;;;;;;;7.70;99.90;;;;;;5028006;28;20466;-80
2021/12/30 06:15:36;;;;;;;;;;;7.70;99.90;;;;;;5028715;28;19926;-81
2021/12/30 06:18:02;;;;;;;;;;;7.40;99.90;;;;;;5028125;28;19925;-80
2021/12/30 06:20:30;;;;;;;;;;;8.50;99.90;;;;;;5030854;28;19929;-80
2021/12/30 06:22:57;;;;;;;;;;;7.60;99.90;;;;;;5030454;28;19932;-81
2021/12/30 06:25:23;;;;;;;;;;;7.70;99.90;;;;;;5020526;28;19926;-81
2021/12/30 06:27:50;;;;;;;;;;;7.60;99.90;;;;;;5027175;28;19933;-82
2021/12/30 06:30:18;;;;;;;;;;;7.90;99.90;;;;;;5027240;28;19925;-81
2021/12/30 06:32:44;;;;;;;;;;;7.60;99.90;;;;;;5027811;28;19926;-82
2021/12/30 06:35:11;;;;;;;;;;;7.80;99.90;;;;;;5026673;28;19984;-82
2021/12/30 06:37:38;;;;;;;;;;;8.00;99.90;;;;;;5026432;28;19976;-81
2021/12/30 06:40:06;;;;;;;;;;;7.70;99.90;;;;;;5027221;28;19925;-82
2021/12/30 06:42:32;;;;;;;;;;;7.90;99.90;;;;;;5028422;28;19925;-81
2021/12/30 06:44:59;;;;;;;;;;;7.80;99.90;;;;;;5028297;28;19952;-81
2021/12/30 06:47:27;;;;;;;;;;;7.90;99.90;;;;;;5026753;28;19929;-81
2021/12/30 06:49:59;;;;;;;;;;;7.40;99.90;;;;;;5027975;28;19925;-81
2021/12/30 06:52:26;;;;;;;;;;;7.60;99.90;;;;;;5025832;28;19993;-81
2021/12/30 06:54:52;;;;;;;;;;;7.60;99.90;;;;;;5026743;28;20347;-82
2021/12/30 06:57:19;;;;;;;;;;;7.50;99.90;;;;;;5026020;28;19937;-82
2021/12/30 06:59:46;;;;;;;;;;;7.40;99.90;;;;;;5027239;28;19925;-82
2021/12/30 07:02:14;;;;;;;;;;;7.50;99.90;;;;;;5026716;28;19979;-82
2021/12/30 07:04:42;;;;;;;;;;;7.40;99.90;;;;;;5025975;28;19925;-81
2021/12/30 07:07:08;;;;;;;;;;;7.40;99.90;;;;;;5026187;28;19925;-81
2021/12/30 07:09:34;;;;;;;;;;;7.50;99.90;;;;;;5025993;28;19926;-81
2021/12/30 07:12:01;;;;;;;;;;;7.30;99.90;;;;;;5026706;28;19925;-82
2021/12/30 07:14:29;;;;;;;;;;;7.40;99.90;;;;;;5025777;28;19925;-81
2021/12/30 07:16:55;;;;;;;;;;;7.20;99.90;;;;;;5025837;28;19926;-82
2021/12/30 07:19:21;;;;;;;;;;;7.10;99.90;;;;;;5024352;28;19937;-81
2021/12/30 07:21:53;;;;;;;;;;;7.40;99.90;;;;;;5026606;28;19929;-81
2021/12/30 07:24:20;;;;;;;;;;;7.30;99.90;;;;;;5026478;28;20281;-81
2021/12/30 07:26:47;;;;;;;;;;;7.30;99.90;;;;;;5026093;28;19952;-82
2021/12/30 07:29:13;;;;;;;;;;;7.90;99.90;;;;;;5026784;28;19926;-81
2021/12/30 07:31:40;;;;;;;;;;;7.30;99.90;;;;;;5025527;28;19925;-83
2021/12/30 07:34:06;;;;;;;;;;;7.20;99.90;;;;;;5026086;28;19948;-81
2021/12/30 07:36:33;;;;;;;;;;;7.20;99.90;;;;;;5026273;28;19933;-81
2021/12/30 07:39:00;;;;;;;;;;;7.40;99.90;;;;;;5025976;28;19930;-81
2021/12/30 07:41:27;;;;;;;;;;;7.10;99.90;;;;;;5025690;28;19933;-81
2021/12/30 07:43:53;;;;;;;;;;;7.50;99.90;;;;;;5029793;28;19925;-81
2021/12/30 07:46:20;;;;;;;;;;;7.60;99.90;;;;;;5027187;28;19926;-81
2021/12/30 07:48:46;;;;;;;;;;;7.60;99.90;;;;;;5023563;28;19948;-81
2021/12/30 07:51:13;;;;;;;;;;;7.50;99.90;;;;;;5018874;28;19952;-81
2021/12/30 07:53:40;;;;;;;;;;;7.60;99.90;;;;;;5023813;28;19930;-82
2021/12/30 07:56:08;;;;;;;;;;;7.40;99.90;;;;;;5030686;28;19936;-80
2021/12/30 07:58:34;;;;;;;;;;;7.60;99.90;;;;;;5035406;28;19989;-79
2021/12/30 08:01:01;;;;;;;;;;;7.30;99.90;;;;;;5036903;28;19914;-80
2021/12/30 08:03:27;;;;;;;;;;;7.30;99.90;;;;;;5037682;28;19909;-79
2021/12/30 08:05:54;;;;;;;;;;;6.90;99.90;;;;;;5037459;28;19925;-82
2021/12/30 08:08:20;;;;;;;;;;;7.50;99.90;;;;;;5036275;28;19932;-79
2021/12/30 08:10:47;;;;;;;;;;;7.40;99.90;;;;;;5034626;28;19925;-81
2021/12/30 08:13:14;;;;;;;;;;;7.60;99.90;;;;;;5031031;28;19948;-80
2021/12/30 08:15:42;;;;;;;;;;;7.50;99.90;;;;;;5031121;28;19925;-82
2021/12/30 08:18:09;;;;;;;;;;;7.60;99.90;;;;;;5030804;28;19997;-82
2021/12/30 08:20:36;;;;;;;;;;;7.70;99.90;;;;;;5030344;28;19931;-80
2021/12/30 08:23:02;;;;;;;;;;;7.60;99.90;;;;;;5029682;28;19948;-81
2021/12/30 08:25:29;;;;;;;;;;;7.50;99.90;;;;;;5029281;28;19925;-81
2021/12/30 08:27:56;;;;;;;;;;;7.50;99.90;;;;;;5029579;28;19925;-81
2021/12/30 08:30:24;;;;;;;;;;;7.80;99.90;;;;;;5028507;28;19961;-82
2021/12/30 08:32:51;;;;;;;;;;;7.90;99.90;;;;;;5029636;28;19985;-81
2021/12/30 08:35:20;;;;;;;;;;;7.80;99.90;;;;;;5029551;28;19925;-81
2021/12/30 08:37:50;;;;;;;;;;;7.80;99.90;;;;;;5030304;28;19925;-85
2021/12/30 08:40:18;;;;;;;;;;;7.80;99.90;;;;;;5031329;28;19932;-80
2021/12/30 08:42:45;;;;;;;;;;;7.90;99.90;;;;;;5034429;28;19925;-80
2021/12/30 08:45:12;;;;;;;;;;;8.00;99.90;;;;;;5034426;28;19925;-80
2021/12/30 08:47:41;;;;;;;;;;;7.90;99.90;;;;;;5034865;28;19916;-81
2021/12/30 08:50:09;;;;;;;;;;;8.30;99.90;;;;;;5039182;28;19909;-81
2021/12/30 08:52:36;;;;;;;;;;;8.20;99.90;;;;;;5038160;28;19910;-80
2021/12/30 08:55:04;;;;;;;;;;;7.70;99.90;;;;;;5037450;28;19952;-80
2021/12/30 08:57:31;;;;;;;;;;;9.30;99.90;;;;;;5037504;28;19936;-81
2021/12/30 08:59:58;;;;;;;;;;;8.40;99.90;;;;;;5039045;28;19914;-80
2021/12/30 09:02:24;;;;;;;;;;;7.80;99.90;;;;;;5040840;28;19973;-80
2021/12/30 09:04:52;;;;;;;;;;;7.80;99.90;;;;;;5036497;28;19948;-82
2021/12/30 09:07:19;;;;;;;;;;;8.20;99.90;;;;;;5034793;28;19956;-82
2021/12/30 09:09:45;;;;;;;;;;;8.20;99.90;;;;;;5038807;28;19952;-81
2021/12/30 09:12:12;;;;;;;;;;;8.30;99.90;;;;;;5038824;28;20036;-79
2021/12/30 09:14:38;;;;;;;;;;;8.40;99.90;;;;;;5032995;28;19949;-82
2021/12/30 09:17:05;;;;;;;;;;;8.20;99.90;;;;;;5029997;28;19929;-82
2021/12/30 09:19:32;;;;;;;;;;;8.10;99.90;;;;;;5028310;28;19983;-82
2021/12/30 09:22:00;;;;;;;;;;;8.20;99.90;;;;;;5031693;28;19925;-81
2021/12/30 09:24:26;;;;;;;;;;;8.30;99.90;;;;;;5033506;28;19925;-82
2021/12/30 09:26:53;;;;;;;;;;;7.50;99.90;;;;;;5028033;28;19925;-82
2021/12/30 09:29:19;;;;;;;;;;;7.70;99.90;;;;;;5034496;28;19925;-80
2021/12/30 09:31:48;;;;;;;;;;;8.00;99.90;;;;;;5037583;28;19913;-81
2021/12/30 09:34:15;;;;;;;;;;;7.90;99.90;;;;;;5029381;28;19949;-82
2021/12/30 09:36:41;;;;;;;;;;;8.60;99.90;;;;;;5027810;28;20396;-81
2021/12/30 09:39:10;;;;;;;;;;;8.40;99.90;;;;;;5030670;28;19948;-81
2021/12/30 09:41:39;;;;;;;;;;;8.50;99.90;;;;;;5037876;28;19921;-82
2021/12/30 09:44:06;;;;;;;;;;;8.50;99.90;;;;;;5034772;28;19940;-81
2021/12/30 09:46:33;;;;;;;;;;;8.50;99.90;;;;;;5034146;28;19925;-80
2021/12/30 09:49:00;;;;;;;;;;;8.50;99.90;;;;;;5033836;28;19964;-81
2021/12/30 09:51:26;;;;;;;;;;;8.50;99.90;;;;;;5031027;28;19925;-82
2021/12/30 09:53:53;;;;;;;;;;;8.50;99.90;;;;;;5029457;28;19910;-83
2021/12/30 09:56:21;;;;;;;;;;;8.50;99.90;;;;;;5029148;28;19932;-83
2021/12/30 09:58:48;;;;;;;;;;;8.40;99.90;;;;;;5029510;28;19949;-81
2021/12/30 10:01:15;;;;;;;;;;;8.30;99.90;;;;;;5027701;28;19979;-82
2021/12/30 10:03:42;;;;;;;;;;;8.50;99.90;;;;;;5028094;28;19926;-82
2021/12/30 10:06:09;;;;;;;;;;;8.60;99.90;;;;;;5029074;28;20016;-83
2021/12/30 10:08:40;;;;;;;;;;;8.50;99.90;;;;;;5028434;28;19925;-82
2021/12/30 10:11:12;;;;;;;;;;;8.10;99.90;;;;;;5028918;28;20383;-82
2021/12/30 10:13:49;;;;;;;;;;;8.40;99.90;;;;;;5037194;28;19925;-81
2021/12/30 10:16:16;;;;;;;;;;;8.40;99.90;;;;;;5030813;28;19925;-82
2021/12/30 10:18:44;;;;;;;;;;;8.50;99.90;;;;;;5028055;28;19980;-82
2021/12/30 10:21:11;;;;;;;;;;;7.60;99.90;;;;;;5025911;28;19929;-82
2021/12/30 10:23:42;;;;;;;;;;;8.30;99.90;;;;;;5026829;28;19936;-82
2021/12/30 10:26:08;;;;;;;;;;;8.50;99.90;;;;;;5026931;28;19925;-81
2021/12/30 10:28:36;;;;;;;;;;;8.50;99.90;;;;;;5028416;28;19925;-81
2021/12/30 10:34:25;;;;;;;;;;;8.40;99.90;;;;;;5019522;28;19926;-85
2021/12/30 10:37:02;;;;;;;;;;;8.30;99.90;;;;;;5018757;28;19925;-85
2021/12/30 10:40:20;;;;;;;;;;;;;;;;;;;;;
2021/12/30 10:58:19;;;;;;;;;;;8.50;99.90;;;;;;5003160;28;20017;-84
2021/12/30 11:14:06;;;;;;;;;;;8.60;99.90;;;;;;1191939;26;19953;-84
2021/12/30 11:32:36;;;;;;;;;;;8.20;99.90;;;;;;4913958;29;19933;-84
2021/12/30 11:35:05;;;;;;;;;;;9.70;99.90;;;;;;4966513;23;19985;-81
2021/12/30 11:37:31;;;;;;;;;;;8.60;99.90;;;;;;5027362;28;20304;-83
2021/12/30 11:39:59;;;;;;;;;;;8.70;99.90;;;;;;5026350;28;19963;-81
2021/12/30 11:42:28;;;;;;;;;;;8.70;99.90;;;;;;5026512;28;19925;-81
2021/12/30 11:44:55;;;;;;;;;;;8.80;99.90;;;;;;5025288;28;19980;-81
2021/12/30 11:47:38;;;;;;;;;;;8.80;99.90;;;;;;5030001;28;19925;-79
2021/12/30 11:50:08;;;;;;;;;;;8.80;99.90;;;;;;5030948;28;19952;-80
2021/12/30 11:52:52;;;;;;;;;;;8.80;99.90;;;;;;5030537;28;20351;-81
2021/12/30 11:55:33;;;;;;;;;;;8.90;99.90;;;;;;5022320;28;19925;-82
2021/12/30 11:58:16;;;;;;;;;;;8.80;99.90;;;;;;5039204;28;19957;-82
2021/12/30 12:00:42;;;;;;;;;;;8.90;99.90;;;;;;5031268;28;19926;-82
2021/12/30 12:03:24;;;;;;;;;;;8.90;99.90;;;;;;5031833;28;19972;-81
2021/12/30 12:05:53;;;;;;;;;;;8.90;99.90;;;;;;5030607;28;19929;-82
2021/12/30 12:08:19;;;;;;;;;;;8.90;99.90;;;;;;5028644;28;19957;-81
2021/12/30 12:11:05;;;;;;;;;;;8.90;99.90;;;;;;5029784;28;19925;-81
2021/12/30 12:13:32;;;;;;;;;;;9.00;99.90;;;;;;5032975;28;19975;-80
2021/12/30 12:15:59;;;;;;;;;;;8.90;99.90;;;;;;5029697;28;19933;-80
2021/12/30 12:18:26;;;;;;;;;;;8.90;99.90;;;;;;5030638;28;19994;-82
2021/12/30 12:20:55;;;;;;;;;;;8.90;99.90;;;;;;5029113;28;19929;-82
2021/12/30 12:23:32;;;;;;;;;;;8.90;99.90;;;;;;5034752;28;19944;-81
2021/12/30 12:26:08;;;;;;;;;;;9.00;99.90;;;;;;5032329;28;19925;-79
2021/12/30 12:28:34;;;;;;;;;;;8.90;99.90;;;;;;5036989;28;19957;-80
2021/12/30 12:31:01;;;;;;;;;;;8.80;99.90;;;;;;5039512;28;19952;-80
2021/12/30 12:33:28;;;;;;;;;;;9.00;99.90;;;;;;5039879;28;19948;-82
2021/12/30 12:35:56;;;;;;;;;;;9.00;99.90;;;;;;5038360;28;20031;-82
2021/12/30 12:38:35;;;;;;;;;;;9.10;99.90;;;;;;5034197;28;19925;-82
2021/12/30 12:41:15;;;;;;;;;;;9.10;99.90;;;;;;5032271;28;19949;-82
2021/12/30 12:43:42;;;;;;;;;;;9.00;99.90;;;;;;5031111;28;19925;-83
2021/12/30 12:46:08;;;;;;;;;;;8.90;99.90;;;;;;5029951;28;19925;-82
2021/12/30 12:48:39;;;;;;;;;;;8.80;99.90;;;;;;5028597;28;19972;-82
2021/12/30 12:51:09;;;;;;;;;;;9.00;99.90;;;;;;5029118;28;19952;-82
2021/12/30 12:53:43;;;;;;;;;;;9.00;99.90;;;;;;5030101;28;19926;-80
2021/12/30 12:56:11;;;;;;;;;;;9.00;99.90;;;;;;5030257;28;19925;-83
2021/12/30 12:58:39;;;;;;;;;;;9.00;99.90;;;;;;5029254;28;19925;-83
2021/12/30 13:01:06;;;;;;;;;;;9.00;99.90;;;;;;5029501;28;19948;-82
2021/12/30 13:03:35;;;;;;;;;;;8.80;99.90;;;;;;5028713;28;19925;-82
2021/12/30 13:06:02;;;;;;;;;;;9.00;99.90;;;;;;5029510;28;20025;-82
2021/12/30 13:08:31;;;;;;;;;;;9.00;99.90;;;;;;5029443;28;19975;-83
2021/12/30 13:10:58;;;;;;;;;;;9.00;99.90;;;;;;5028861;28;19926;-82
2021/12/30 13:13:28;;;;;;;;;;;9.00;99.90;;;;;;5028522;28;19926;-82
2021/12/30 13:15:55;;;;;;;;;;;9.10;99.90;;;;;;5033191;28;19926;-82
2021/12/30 13:18:22;;;;;;;;;;;9.10;99.90;;;;;;5030924;28;19925;-82
2021/12/30 13:20:49;;;;;;;;;;;9.10;99.90;;;;;;5033665;28;19926;-81
2021/12/30 13:23:25;;;;;;;;;;;9.10;99.90;;;;;;5033057;28;19952;-81
2021/12/30 13:25:58;;;;;;;;;;;9.20;99.90;;;;;;5029668;28;19926;-81
2021/12/30 13:28:25;;;;;;;;;;;9.20;99.90;;;;;;5029721;28;19929;-82
2021/12/30 13:30:51;;;;;;;;;;;9.20;99.90;;;;;;5030304;28;19925;-82
2021/12/30 13:33:18;;;;;;;;;;;9.20;99.90;;;;;;5030479;28;19925;-82
2021/12/30 13:35:44;;;;;;;;;;;9.20;99.90;;;;;;5032790;28;19913;-81
2021/12/30 13:38:11;;;;;;;;;;;9.20;99.90;;;;;;5038085;28;19932;-80
2021/12/30 13:40:39;;;;;;;;;;;9.00;99.90;;;;;;5038674;28;19920;-82
2021/12/30 13:43:08;;;;;;;;;;;9.20;99.90;;;;;;5038599;28;19980;-81
2021/12/30 13:45:36;;;;;;;;;;;9.20;99.90;;;;;;5030353;28;19948;-82
2021/12/30 13:48:06;;;;;;;;;;;9.00;99.90;;;;;;5030224;28;19925;-82
2021/12/30 13:50:33;;;;;;;;;;;9.20;99.90;;;;;;5029893;28;19925;-82
2021/12/30 13:53:00;;;;;;;;;;;9.30;99.90;;;;;;5028270;28;19948;-82
2021/12/30 13:55:28;;;;;;;;;;;9.20;99.90;;;;;;5027785;28;19933;-82
2021/12/30 13:57:59;;;;;;;;;;;8.90;99.90;;;;;;5027937;28;20343;-80
2021/12/30 14:00:28;;;;;;;;;;;9.30;99.90;;;;;;5027114;28;19925;-82
2021/12/30 14:03:01;;;;;;;;;;;9.30;99.90;;;;;;5029414;28;19926;-81
2021/12/30 14:05:28;;;;;;;;;;;9.30;99.90;;;;;;5034504;28;20336;-81
2021/12/30 14:07:54;;;;;;;;;;;9.40;99.90;;;;;;5036379;28;19910;-81
2021/12/30 14:10:21;;;;;;;;;;;9.30;99.90;;;;;;5034849;28;20268;-82
2021/12/30 14:12:58;;;;;;;;;;;9.40;99.90;;;;;;5027320;28;19980;-82
2021/12/30 14:15:31;;;;;;;;;;;9.40;99.90;;;;;;5026521;28;23528;-82
2021/12/30 14:17:59;;;;;;;;;;;9.40;99.90;;;;;;5029571;28;19926;-82
2021/12/30 14:20:26;;;;;;;;;;;9.40;99.90;;;;;;5021174;28;20463;-82
2021/12/30 14:22:52;;;;;;;;;;;9.40;99.90;;;;;;5019512;28;19949;-82
2021/12/30 14:25:25;;;;;;;;;;;9.40;99.90;;;;;;5020637;28;19926;-81
2021/12/30 14:27:53;;;;;;;;;;;9.40;99.90;;;;;;5023862;28;19929;-82
2021/12/30 14:30:20;;;;;;;;;;;9.50;99.90;;;;;;5025627;28;19925;-81
2021/12/30 14:32:47;;;;;;;;;;;9.50;99.90;;;;;;5025324;28;19965;-81
2021/12/30 14:35:15;;;;;;;;;;;9.50;99.90;;;;;;5027455;28;20336;-82
2021/12/30 14:37:44;;;;;;;;;;;9.50;99.90;;;;;;5028002;28;19961;-82
2021/12/30 14:40:16;;;;;;;;;;;9.50;99.90;;;;;;5027544;28;19925;-83
2021/12/30 14:42:42;;;;;;;;;;;9.50;99.90;;;;;;5026779;28;19932;-81
2021/12/30 14:45:10;;;;;;;;;;;9.60;99.90;;;;;;5027102;28;19925;-82
2021/12/30 14:47:38;;;;;;;;;;;9.50;99.90;;;;;;5028169;28;19948;-81
2021/12/30 14:50:07;;;;;;;;;;;9.60;99.90;;;;;;5026594;28;19983;-83
2021/12/30 14:52:35;;;;;;;;;;;9.60;99.90;;;;;;5025937;28;19957;-81
2021/12/30 14:55:02;;;;;;;;;;;9.60;99.90;;;;;;5025946;28;19937;-80
2021/12/30 14:57:29;;;;;;;;;;;9.60;99.90;;;;;;5026374;28;19970;-82
2021/12/30 14:59:56;;;;;;;;;;;9.70;99.90;;;;;;5027825;28;19952;-81
2021/12/30 15:02:25;;;;;;;;;;;9.60;99.90;;;;;;5026700;28;19956;-81
2021/12/30 15:04:52;;;;;;;;;;;9.60;99.90;;;;;;5028089;28;20567;-81
2021/12/30 15:07:21;;;;;;;;;;;9.60;99.90;;;;;;5030638;28;19936;-82
2021/12/30 15:09:50;;;;;;;;;;;9.70;99.90;;;;;;5028260;28;19980;-81
2021/12/30 15:12:17;;;;;;;;;;;9.70;99.90;;;;;;5030041;28;19925;-81
2021/12/30 15:14:44;;;;;;;;;;;9.80;99.90;;;;;;5031789;28;19936;-83
2021/12/30 15:17:11;;;;;;;;;;;9.90;99.90;;;;;;5029988;28;19979;-82
2021/12/30 15:19:38;;;;;;;;;;;9.80;99.90;;;;;;5028428;28;20340;-83
2021/12/30 15:22:06;;;;;;;;;;;9.90;99.90;;;;;;5030911;28;19960;-82
2021/12/30 15:24:34;;;;;;;;;;;9.90;99.90;;;;;;5028870;28;19925;-81
2021/12/30 15:27:01;;;;;;;;;;;9.80;99.90;;;;;;5027094;28;19974;-82
2021/12/30 15:29:27;;;;;;;;;;;9.80;99.90;;;;;;5027778;28;19960;-82
2021/12/30 15:31:54;;;;;;;;;;;9.90;99.90;;;;;;5027184;28;19932;-82
2021/12/30 15:34:20;;;;;;;;;;;9.90;99.90;;;;;;5026929;28;20277;-81
2021/12/30 15:36:47;;;;;;;;;;;10.00;99.90;;;;;;5027843;28;20113;-82
2021/12/30 15:39:14;;;;;;;;;;;10.00;99.90;;;;;;5027201;28;19925;-82
2021/12/30 15:41:42;;;;;;;;;;;10.00;99.90;;;;;;5027778;28;19925;-81
2021/12/30 15:44:10;;;;;;;;;;;10.10;99.90;;;;;;5027399;28;19979;-82
2021/12/30 15:46:36;;;;;;;;;;;10.10;99.90;;;;;;5025850;28;19925;-81
2021/12/30 15:49:06;;;;;;;;;;;10.10;99.90;;;;;;5026883;28;19982;-83
2021/12/30 15:51:33;;;;;;;;;;;10.20;99.90;;;;;;5028101;28;19925;-81
2021/12/30 15:53:59;;;;;;;;;;;10.20;99.90;;;;;;5036994;28;19925;-80
2021/12/30 15:56:26;;;;;;;;;;;10.20;99.90;;;;;;5035166;28;19948;-79
2021/12/30 15:58:53;;;;;;;;;;;;;;;;;;5037647;28;19924;-81
2021/12/30 16:01:21;;;;;;;;;;;10.40;99.90;;;;;;5032060;28;19913;-82
2021/12/30 16:03:47;;;;;;;;;;;10.40;99.90;;;;;;5018320;28;19973;-81
2021/12/30 16:06:14;;;;;;;;;;;;;;;;;;5019967;28;19925;-82
2021/12/30 16:08:41;;;;;;;;;;;11.10;99.90;;;;;;5023282;28;20343;-82
2021/12/30 16:11:07;;;;;;;;;;;;;;;;;;5025397;28;19932;-81